Time;durP1;ratioP1;P1;durP2;ratioP2;P2;SDS_P1;SDS_P2;PMS_P1;PMS_P2;Temp;Humidity;BMP_temperature;BMP_pressure;BME280_temperature;BME280_humidity;BME280_pressure;Samples;Min_cycle;Max_cycle;Signal;HPM_P1;HPM_P2
2023/06/30 00:00:08;;;;;;;;;5.25;5.25;;;;;;;;5057177;28;8956;-90
2023/06/30 00:02:36;;;;;;;;;7.50;5.75;;;;;;;;5057527;28;8811;-90
2023/06/30 00:05:03;;;;;;;;;7.75;6.25;;;;;;;;5057115;28;9643;-90
2023/06/30 00:07:31;;;;;;;;;5.50;5.50;;;;;;;;5055431;28;9596;-90
2023/06/30 00:10:00;;;;;;;;;6.00;6.00;;;;;;;;5046439;28;8860;-91
2023/06/30 00:12:27;;;;;;;;;6.25;4.00;;;;;;;;5061662;28;8913;-89
2023/06/30 00:14:55;;;;;;;;;6.00;5.25;;;;;;;;5056872;28;8851;-90
2023/06/30 00:17:23;;;;;;;;;5.75;5.75;;;;;;;;5056504;28;8858;-89
2023/06/30 00:19:51;;;;;;;;;6.75;6.00;;;;;;;;5063471;28;9013;-90
2023/06/30 00:22:19;;;;;;;;;6.00;6.00;;;;;;;;5050494;28;8854;-90
2023/06/30 00:24:47;;;;;;;;;3.75;3.75;;;;;;;;5058231;28;8859;-90
2023/06/30 00:27:15;;;;;;;;;5.25;5.25;;;;;;;;5049605;28;8855;-90
2023/06/30 00:29:42;;;;;;;;;3.75;3.75;;;;;;;;5049603;28;8881;-90
2023/06/30 00:32:09;;;;;;;;;5.00;5.00;;;;;;;;5051434;28;8865;-90
2023/06/30 00:34:38;;;;;;;;;2.50;2.50;;;;;;;;5054176;28;8834;-90
2023/06/30 00:37:06;;;;;;;;;4.00;4.00;;;;;;;;5060205;28;8869;-90
2023/06/30 00:39:33;;;;;;;;;3.75;3.75;;;;;;;;5060496;28;8923;-91
2023/06/30 00:42:03;;;;;;;;;5.50;5.50;;;;;;;;5060355;28;8867;-90
2023/06/30 00:44:33;;;;;;;;;6.25;4.75;;;;;;;;5063202;28;8902;-90
2023/06/30 00:47:04;;;;;;;;;4.00;4.00;;;;;;;;5057077;28;8874;-91
2023/06/30 00:49:32;;;;;;;;;5.00;5.00;;;;;;;;5063688;28;8989;-89
2023/06/30 00:52:03;;;;;;;;;3.75;3.75;;;;;;;;5053072;28;8872;-90
2023/06/30 00:54:33;;;;;;;;;3.75;3.25;;;;;;;;5053402;28;8876;-89
2023/06/30 00:57:04;;;;;;;;;3.00;1.25;;;;;;;;5057970;28;8999;-90
2023/06/30 00:59:34;;;;;;;;;3.00;3.00;;;;;;;;5041278;28;8964;-89
2023/06/30 01:02:05;;;;;;;;;5.00;3.50;;;;;;;;5056515;28;8821;-90
2023/06/30 01:04:40;;;;;;;;;3.25;3.25;;;;;;;;5052288;28;8866;-89
2023/06/30 01:07:15;;;;;;;;;3.00;3.00;;;;;;;;5052980;28;8849;-89
2023/06/30 01:09:50;;;;;;;;;4.50;4.00;;;;;;;;5051874;28;8863;-90
2023/06/30 01:12:17;;;;;;;;;3.75;3.00;;;;;;;;5062879;28;8868;-91
2023/06/30 01:14:46;;;;;;;;;2.75;2.75;;;;;;;;5059205;28;8857;-90
2023/06/30 01:17:15;;;;;;;;;2.00;2.00;;;;;;;;5055786;28;8896;-90
2023/06/30 01:19:45;;;;;;;;;2.75;2.75;;;;;;;;5059537;28;8852;-90
2023/06/30 01:22:20;;;;;;;;;3.00;3.00;;;;;;;;5058435;28;8863;-90
2023/06/30 01:24:49;;;;;;;;;3.00;3.00;;;;;;;;5045567;28;8841;-90
2023/06/30 01:27:16;;;;;;;;;3.00;3.00;;;;;;;;5057354;28;8853;-89
2023/06/30 01:29:44;;;;;;;;;2.00;2.00;;;;;;;;5052445;28;8880;-89
2023/06/30 01:32:16;;;;;;;;;2.00;2.00;;;;;;;;5052451;28;8806;-90
2023/06/30 01:34:44;;;;;;;;;4.75;3.25;;;;;;;;5053359;28;8878;-90
2023/06/30 01:37:13;;;;;;;;;4.25;3.25;;;;;;;;5065932;28;8996;-90
2023/06/30 01:39:41;;;;;;;;;3.50;3.50;;;;;;;;5053446;28;8866;-91
2023/06/30 01:42:08;;;;;;;;;5.00;5.00;;;;;;;;5043333;28;8869;-91
2023/06/30 01:44:37;;;;;;;;;5.50;4.00;;;;;;;;5053673;28;8841;-90
2023/06/30 01:47:04;;;;;;;;;4.75;4.75;;;;;;;;5055198;28;8868;-91
2023/06/30 01:49:34;;;;;;;;;3.25;3.25;;;;;;;;5055949;28;8960;-89
2023/06/30 01:52:05;;;;;;;;;6.25;4.50;;;;;;;;5055113;28;8861;-89
2023/06/30 01:54:33;;;;;;;;;6.50;5.00;;;;;;;;5057360;28;8881;-90
2023/06/30 01:57:01;;;;;;;;;5.00;5.00;;;;;;;;5058674;28;8881;-89
2023/06/30 01:59:34;;;;;;;;;4.75;4.75;;;;;;;;5053542;28;8988;-89
2023/06/30 02:02:04;;;;;;;;;5.50;5.50;;;;;;;;5056635;28;8829;-89
2023/06/30 02:04:34;;;;;;;;;7.50;5.00;;;;;;;;5049730;28;8849;-89
2023/06/30 02:07:14;;;;;;;;;4.25;4.25;;;;;;;;5050431;28;8869;-89
2023/06/30 02:09:43;;;;;;;;;6.00;6.00;;;;;;;;5061400;28;8858;-89
2023/06/30 02:12:11;;;;;;;;;3.50;3.50;;;;;;;;5055925;28;8881;-90
2023/06/30 02:14:38;;;;;;;;;5.75;5.75;;;;;;;;5051717;28;8870;-88
2023/06/30 02:17:06;;;;;;;;;4.50;4.50;;;;;;;;5059910;28;8861;-90
2023/06/30 02:19:33;;;;;;;;;6.25;5.00;;;;;;;;5043321;28;8896;-90
2023/06/30 02:22:01;;;;;;;;;6.50;4.25;;;;;;;;5049364;28;8901;-90
2023/06/30 02:24:28;;;;;;;;;4.00;4.00;;;;;;;;5035346;28;8869;-89
2023/06/30 02:26:58;;;;;;;;;6.50;6.50;;;;;;;;5054386;28;8858;-90
2023/06/30 02:29:25;;;;;;;;;5.75;4.25;;;;;;;;5061903;28;8877;-89
2023/06/30 02:31:52;;;;;;;;;5.00;5.00;;;;;;;;5057642;28;8784;-90
2023/06/30 02:34:20;;;;;;;;;5.75;5.75;;;;;;;;5061345;28;8861;-90
2023/06/30 02:36:48;;;;;;;;;5.75;4.50;;;;;;;;5056969;28;8851;-90
2023/06/30 02:39:16;;;;;;;;;5.00;5.00;;;;;;;;5051215;28;8866;-90
2023/06/30 02:41:43;;;;;;;;;7.00;5.50;;;;;;;;5053295;28;8982;-90
2023/06/30 02:44:12;;;;;;;;;6.00;6.00;;;;;;;;5050799;28;8962;-91
2023/06/30 02:46:40;;;;;;;;;8.00;6.25;;;;;;;;5045435;28;8865;-90
2023/06/30 02:49:07;;;;;;;;;6.00;6.00;;;;;;;;5043299;28;9004;-89
2023/06/30 02:51:34;;;;;;;;;6.00;4.00;;;;;;;;5062173;28;8854;-89
2023/06/30 02:54:04;;;;;;;;;6.00;6.00;;;;;;;;5055635;28;8938;-89
2023/06/30 02:56:35;;;;;;;;;5.75;5.25;;;;;;;;5039875;28;8947;-89
2023/06/30 02:59:03;;;;;;;;;5.75;5.75;;;;;;;;5050751;28;8976;-89
2023/06/30 03:01:32;;;;;;;;;5.75;5.75;;;;;;;;5057693;28;8810;-90
2023/06/30 03:04:04;;;;;;;;;5.00;5.00;;;;;;;;5051084;28;8943;-89
2023/06/30 03:06:34;;;;;;;;;4.00;4.00;;;;;;;;5034608;28;8957;-90
2023/06/30 03:09:04;;;;;;;;;5.75;5.75;;;;;;;;5030757;28;8897;-89
2023/06/30 03:11:34;;;;;;;;;5.75;5.75;;;;;;;;5057789;28;9008;-89
2023/06/30 03:14:02;;;;;;;;;3.50;3.50;;;;;;;;5045575;28;8916;-89
2023/06/30 03:16:31;;;;;;;;;4.00;4.00;;;;;;;;5057412;28;8865;-90
2023/06/30 03:18:59;;;;;;;;;7.00;5.00;;;;;;;;5063936;28;8920;-90
2023/06/30 03:21:26;;;;;;;;;5.50;5.50;;;;;;;;5052627;28;8942;-90
2023/06/30 03:23:58;;;;;;;;;5.25;5.25;;;;;;;;5053553;28;8868;-90
2023/06/30 03:26:28;;;;;;;;;6.00;4.50;;;;;;;;5056406;28;8881;-91
2023/06/30 03:28:55;;;;;;;;;4.25;4.25;;;;;;;;5054775;28;8881;-91
2023/06/30 03:31:24;;;;;;;;;4.75;4.75;;;;;;;;5060133;28;8810;-91
2023/06/30 03:33:53;;;;;;;;;4.25;4.25;;;;;;;;5052695;28;8930;-91
2023/06/30 03:36:20;;;;;;;;;4.75;4.75;;;;;;;;5056346;28;8932;-92
2023/06/30 03:38:47;;;;;;;;;5.50;4.00;;;;;;;;5056338;28;8861;-90
2023/06/30 03:41:15;;;;;;;;;5.50;5.00;;;;;;;;5064162;28;8950;-90
2023/06/30 03:43:43;;;;;;;;;7.00;5.00;;;;;;;;5054422;28;8927;-91
2023/06/30 03:46:12;;;;;;;;;6.25;4.50;;;;;;;;5058593;28;8867;-90
2023/06/30 03:48:39;;;;;;;;;1.75;1.75;;;;;;;;5061071;28;8936;-89
2023/06/30 03:51:08;;;;;;;;;5.00;5.00;;;;;;;;5058038;28;8852;-90
2023/06/30 03:53:35;;;;;;;;;4.75;4.00;;;;;;;;5054940;28;8941;-89
2023/06/30 03:56:06;;;;;;;;;6.00;4.00;;;;;;;;5063055;28;8867;-89
2023/06/30 03:58:36;;;;;;;;;8.75;6.75;;;;;;;;5063714;28;8876;-91
2023/06/30 04:01:04;;;;;;;;;7.50;7.50;;;;;;;;5048671;28;8798;-88
2023/06/30 04:03:34;;;;;;;;;15.00;11.50;;;;;;;;5054506;28;8881;-91
2023/06/30 04:06:01;;;;;;;;;11.75;11.75;;;;;;;;5051212;28;8849;-83
2023/06/30 04:08:30;;;;;;;;;15.50;14.75;;;;;;;;5066665;28;8883;-82
2023/06/30 04:10:57;;;;;;;;;9.00;9.00;;;;;;;;5055928;28;8857;-82
2023/06/30 04:13:24;;;;;;;;;13.50;13.50;;;;;;;;5053050;28;8877;-80
2023/06/30 04:15:51;;;;;;;;;16.00;14.50;;;;;;;;5052093;28;8854;-86
2023/06/30 04:18:18;;;;;;;;;13.75;12.75;;;;;;;;5040855;28;8848;-82
2023/06/30 04:20:47;;;;;;;;;10.75;10.75;;;;;;;;5050600;28;9064;-87
2023/06/30 04:23:14;;;;;;;;;16.25;15.50;;;;;;;;5044329;28;8849;-80
2023/06/30 04:25:43;;;;;;;;;16.50;16.50;;;;;;;;5047092;28;8841;-80
2023/06/30 04:28:10;;;;;;;;;16.75;15.75;;;;;;;;5057275;28;8854;-81
2023/06/30 04:30:37;;;;;;;;;21.75;19.50;;;;;;;;5055507;28;8794;-82
2023/06/30 04:33:05;;;;;;;;;17.25;15.50;;;;;;;;5056725;28;9027;-80
2023/06/30 04:35:32;;;;;;;;;26.50;23.50;;;;;;;;5053102;28;8850;-81
2023/06/30 04:37:59;;;;;;;;;23.50;22.25;;;;;;;;5051942;28;9015;-81
2023/06/30 04:40:26;;;;;;;;;20.25;19.25;;;;;;;;5051637;28;8861;-82
2023/06/30 04:42:55;;;;;;;;;23.00;20.75;;;;;;;;5052131;28;8886;-81
2023/06/30 04:45:23;;;;;;;;;17.75;16.75;;;;;;;;5062440;28;8972;-82
2023/06/30 04:47:50;;;;;;;;;14.50;12.00;;;;;;;;5063199;28;8977;-83
2023/06/30 04:50:17;;;;;;;;;17.50;16.75;;;;;;;;5052415;28;9006;-83
2023/06/30 04:52:45;;;;;;;;;19.00;17.00;;;;;;;;5050908;28;9613;-82
2023/06/30 04:55:12;;;;;;;;;17.25;13.25;;;;;;;;5052321;28;8850;-82
2023/06/30 04:57:40;;;;;;;;;16.00;14.50;;;;;;;;5060943;28;8853;-82
2023/06/30 05:00:10;;;;;;;;;17.75;14.25;;;;;;;;5051579;28;8876;-79
2023/06/30 05:02:37;;;;;;;;;17.50;15.75;;;;;;;;5051186;28;8834;-83
2023/06/30 05:05:05;;;;;;;;;14.75;13.50;;;;;;;;5056128;28;8898;-78
2023/06/30 05:07:33;;;;;;;;;15.50;14.00;;;;;;;;5055768;28;8884;-82
2023/06/30 05:10:00;;;;;;;;;10.50;9.75;;;;;;;;5056903;28;8833;-83
2023/06/30 05:12:27;;;;;;;;;12.75;9.75;;;;;;;;5068561;28;9629;-86
2023/06/30 05:14:54;;;;;;;;;11.00;10.50;;;;;;;;5053652;28;8849;-84
2023/06/30 05:17:23;;;;;;;;;13.00;10.25;;;;;;;;5055080;28;8877;-80
2023/06/30 05:19:50;;;;;;;;;12.25;10.75;;;;;;;;5058014;28;8839;-84
2023/06/30 05:22:17;;;;;;;;;9.50;9.50;;;;;;;;5067944;28;8854;-84
2023/06/30 05:24:45;;;;;;;;;8.00;7.00;;;;;;;;5068191;28;9000;-84
2023/06/30 05:27:12;;;;;;;;;8.50;7.25;;;;;;;;5055571;28;8926;-83
2023/06/30 05:29:39;;;;;;;;;5.50;5.50;;;;;;;;5064637;28;8962;-83
2023/06/30 05:32:08;;;;;;;;;6.50;4.50;;;;;;;;5063965;28;9605;-85
2023/06/30 05:34:42;;;;;;;;;8.00;7.75;;;;;;;;5065481;28;8851;-83
2023/06/30 05:37:09;;;;;;;;;5.75;5.00;;;;;;;;5062677;28;9644;-83
2023/06/30 05:39:37;;;;;;;;;8.25;7.00;;;;;;;;5066259;28;8863;-83
2023/06/30 05:42:05;;;;;;;;;7.00;7.00;;;;;;;;5064176;28;8881;-83
2023/06/30 05:44:32;;;;;;;;;11.75;10.00;;;;;;;;5064150;28;8839;-84
2023/06/30 05:47:00;;;;;;;;;11.75;9.75;;;;;;;;5063166;28;8857;-88
2023/06/30 05:49:27;;;;;;;;;10.75;10.75;;;;;;;;5062143;28;9667;-88
2023/06/30 05:51:56;;;;;;;;;5.75;5.75;;;;;;;;5051010;28;8873;-82
2023/06/30 05:54:23;;;;;;;;;7.00;7.00;;;;;;;;5051551;28;8873;-89
2023/06/30 05:56:53;;;;;;;;;6.25;6.25;;;;;;;;5049652;28;8939;-84
2023/06/30 05:59:20;;;;;;;;;9.75;7.00;;;;;;;;5050308;28;8861;-86
2023/06/30 06:01:48;;;;;;;;;8.00;5.75;;;;;;;;5049744;28;8821;-82
2023/06/30 06:04:15;;;;;;;;;5.00;5.00;;;;;;;;5050139;28;8908;-86
2023/06/30 06:06:42;;;;;;;;;7.00;7.00;;;;;;;;5049534;28;8857;-81
2023/06/30 06:09:11;;;;;;;;;9.00;6.25;;;;;;;;5070076;28;8876;-85
2023/06/30 06:11:39;;;;;;;;;8.50;8.50;;;;;;;;5067507;28;8862;-76
2023/06/30 06:14:06;;;;;;;;;7.00;5.25;;;;;;;;5050444;28;8935;-84
2023/06/30 06:16:33;;;;;;;;;6.00;5.25;;;;;;;;5050944;28;8867;-84
2023/06/30 06:19:01;;;;;;;;;4.00;4.00;;;;;;;;5052986;28;9644;-83
2023/06/30 06:21:28;;;;;;;;;8.50;8.50;;;;;;;;5054173;28;8858;-81
2023/06/30 06:23:55;;;;;;;;;5.75;4.00;;;;;;;;5051631;28;8884;-84
2023/06/30 06:26:24;;;;;;;;;6.00;6.00;;;;;;;;5049911;28;8869;-85
2023/06/30 06:28:51;;;;;;;;;6.75;6.00;;;;;;;;5049258;28;8841;-84
2023/06/30 06:31:18;;;;;;;;;7.75;6.25;;;;;;;;5049759;28;8891;-84
2023/06/30 06:33:48;;;;;;;;;3.50;3.50;;;;;;;;5050984;28;8900;-85
2023/06/30 06:36:15;;;;;;;;;5.00;5.00;;;;;;;;5056107;28;9724;-84
2023/06/30 06:38:42;;;;;;;;;8.00;8.00;;;;;;;;5072540;28;8859;-84
2023/06/30 06:41:10;;;;;;;;;6.00;5.50;;;;;;;;5057080;28;8907;-81
2023/06/30 06:43:38;;;;;;;;;9.25;9.25;;;;;;;;5053995;28;8865;-83
2023/06/30 06:46:05;;;;;;;;;8.00;8.00;;;;;;;;5054490;28;8877;-85
2023/06/30 06:48:33;;;;;;;;;9.00;8.00;;;;;;;;5058788;28;8963;-81
2023/06/30 06:51:01;;;;;;;;;6.75;6.75;;;;;;;;5060375;28;8961;-84
2023/06/30 06:53:32;;;;;;;;;2.75;2.75;;;;;;;;5057754;28;8879;-82
2023/06/30 06:56:00;;;;;;;;;4.50;3.00;;;;;;;;5061752;28;8849;-78
2023/06/30 06:58:29;;;;;;;;;5.00;3.00;;;;;;;;5061288;28;9675;-77
2023/06/30 07:00:57;;;;;;;;;2.25;2.25;;;;;;;;5063023;28;8813;-79
2023/06/30 07:03:25;;;;;;;;;2.00;2.00;;;;;;;;5048799;28;9463;-79
2023/06/30 07:05:52;;;;;;;;;2.50;2.50;;;;;;;;5055460;28;8869;-78
2023/06/30 07:08:21;;;;;;;;;0.75;0.75;;;;;;;;5057750;28;8853;-82
2023/06/30 07:10:51;;;;;;;;;2.50;2.50;;;;;;;;5062232;28;8993;-85
2023/06/30 07:13:20;;;;;;;;;1.75;1.75;;;;;;;;5061423;28;8847;-84
2023/06/30 07:15:48;;;;;;;;;0.75;0.75;;;;;;;;5048686;28;8877;-85
2023/06/30 07:18:17;;;;;;;;;2.00;2.00;;;;;;;;5048893;28;8877;-85
2023/06/30 07:20:45;;;;;;;;;1.25;1.25;;;;;;;;5047263;28;8866;-82
2023/06/30 07:23:12;;;;;;;;;1.25;1.25;;;;;;;;5048921;28;8851;-82
2023/06/30 07:25:39;;;;;;;;;0.80;0.80;;;;;;;;5055791;28;8865;-85
2023/06/30 07:28:07;;;;;;;;;1.80;1.80;;;;;;;;5065693;28;8854;-82
2023/06/30 07:30:36;;;;;;;;;1.00;1.00;;;;;;;;5056107;28;8782;-84
2023/06/30 07:33:04;;;;;;;;;1.20;1.20;;;;;;;;5064722;28;8877;-85
2023/06/30 07:35:33;;;;;;;;;2.00;2.00;;;;;;;;5058250;28;8843;-81
2023/06/30 07:38:00;;;;;;;;;0.80;0.80;;;;;;;;5065430;28;8861;-85
2023/06/30 07:40:27;;;;;;;;;1.00;1.00;;;;;;;;5060571;28;9009;-82
2023/06/30 07:42:55;;;;;;;;;2.40;2.00;;;;;;;;5060667;28;9000;-85
2023/06/30 07:45:22;;;;;;;;;2.00;2.00;;;;;;;;5057922;28;8847;-84
2023/06/30 07:47:49;;;;;;;;;2.00;1.00;;;;;;;;5061058;28;8853;-82
2023/06/30 07:50:17;;;;;;;;;2.00;2.00;;;;;;;;5053515;28;9652;-87
2023/06/30 07:52:47;;;;;;;;;1.80;1.80;;;;;;;;5052358;28;8853;-83
2023/06/30 07:55:16;;;;;;;;;3.20;1.40;;;;;;;;5052635;28;8865;-85
2023/06/30 07:57:43;;;;;;;;;1.20;1.20;;;;;;;;5059322;28;8873;-86
2023/06/30 08:00:15;;;;;;;;;1.00;1.00;;;;;;;;5057855;28;8845;-80
2023/06/30 08:02:42;;;;;;;;;3.60;1.00;;;;;;;;5040537;28;8975;-85
2023/06/30 08:05:10;;;;;;;;;1.20;1.20;;;;;;;;5059961;28;8873;-84
2023/06/30 08:07:37;;;;;;;;;1.40;1.40;;;;;;;;5052393;28;8845;-83
2023/06/30 08:10:08;;;;;;;;;1.80;1.80;;;;;;;;5065245;28;8863;-84
2023/06/30 08:12:35;;;;;;;;;0.80;0.80;;;;;;;;5052785;28;9668;-83
2023/06/30 08:15:02;;;;;;;;;1.00;1.00;;;;;;;;5053044;28;8842;-83
2023/06/30 08:17:29;;;;;;;;;2.00;2.00;;;;;;;;5053678;28;8982;-84
2023/06/30 08:19:57;;;;;;;;;3.00;1.00;;;;;;;;5052957;28;8869;-84
2023/06/30 08:22:24;;;;;;;;;2.20;2.20;;;;;;;;5053813;28;8869;-83
2023/06/30 08:24:51;;;;;;;;;1.80;1.80;;;;;;;;5066334;28;8979;-83
2023/06/30 08:27:20;;;;;;;;;1.00;1.00;;;;;;;;5057679;28;8981;-84
2023/06/30 08:29:48;;;;;;;;;1.60;1.60;;;;;;;;5055824;28;8976;-84
2023/06/30 08:32:15;;;;;;;;;2.00;2.00;;;;;;;;5066233;28;8838;-81
2023/06/30 08:34:42;;;;;;;;;2.40;1.60;;;;;;;;5056086;28;8991;-82
2023/06/30 08:37:10;;;;;;;;;2.00;2.00;;;;;;;;5056384;28;8827;-79
2023/06/30 08:39:38;;;;;;;;;2.00;2.00;;;;;;;;5056652;28;8873;-83
2023/06/30 08:42:10;;;;;;;;;1.20;1.20;;;;;;;;5060790;28;8843;-83
2023/06/30 08:44:43;;;;;;;;;0.80;0.80;;;;;;;;5064882;28;8853;-78
2023/06/30 08:47:20;;;;;;;;;2.00;2.00;;;;;;;;5060838;28;8875;-77
2023/06/30 08:49:48;;;;;;;;;0.60;0.60;;;;;;;;5055698;28;8841;-78
2023/06/30 08:52:16;;;;;;;;;1.60;1.60;;;;;;;;5050793;28;8849;-80
2023/06/30 08:54:44;;;;;;;;;2.20;1.40;;;;;;;;5051839;28;8868;-80
2023/06/30 08:57:17;;;;;;;;;1.80;1.80;;;;;;;;5050717;28;8865;-83
2023/06/30 08:59:46;;;;;;;;;1.80;1.80;;;;;;;;5052081;28;8861;-83
2023/06/30 09:02:13;;;;;;;;;3.00;2.00;;;;;;;;5049574;28;8801;-81
2023/06/30 09:04:41;;;;;;;;;0.60;0.60;;;;;;;;5051498;28;9738;-83
2023/06/30 09:07:11;;;;;;;;;2.00;1.00;;;;;;;;5053360;28;8863;-80
2023/06/30 09:09:43;;;;;;;;;2.40;2.40;;;;;;;;5062641;28;8985;-78
2023/06/30 09:12:14;;;;;;;;;2.20;2.20;;;;;;;;5052861;28;8846;-83
2023/06/30 09:14:42;;;;;;;;;1.00;1.00;;;;;;;;5052846;28;8869;-81
2023/06/30 09:17:11;;;;;;;;;1.60;1.60;;;;;;;;5054449;28;8899;-82
2023/06/30 09:19:40;;;;;;;;;1.80;1.80;;;;;;;;5054726;28;8854;-77
2023/06/30 09:22:07;;;;;;;;;2.80;1.60;;;;;;;;5053083;28;8869;-82
2023/06/30 09:24:35;;;;;;;;;0.80;0.80;;;;;;;;5051848;28;8861;-78
2023/06/30 09:27:02;;;;;;;;;0.40;0.20;;;;;;;;5040125;28;8869;-81
2023/06/30 09:29:33;;;;;;;;;0.20;0.20;;;;;;;;5057260;28;8849;-81
2023/06/30 09:32:02;;;;;;;;;0.40;0.40;;;;;;;;5053928;28;8826;-82
2023/06/30 09:34:30;;;;;;;;;2.00;1.80;;;;;;;;5052482;28;8861;-81
2023/06/30 09:36:58;;;;;;;;;0.80;0.80;;;;;;;;5051286;28;8888;-80
2023/06/30 09:39:25;;;;;;;;;1.20;1.20;;;;;;;;5051866;28;8981;-81
2023/06/30 09:41:52;;;;;;;;;0.20;0.20;;;;;;;;5051151;28;8968;-82
2023/06/30 09:44:21;;;;;;;;;2.20;2.20;;;;;;;;5052406;28;8835;-82
2023/06/30 09:46:49;;;;;;;;;1.80;1.80;;;;;;;;5052449;28;8868;-82
2023/06/30 09:49:26;;;;;;;;;1.80;1.80;;;;;;;;5054058;28;8858;-79
2023/06/30 09:51:56;;;;;;;;;1.00;1.00;;;;;;;;5063924;28;8847;-82
2023/06/30 09:54:23;;;;;;;;;1.60;1.60;;;;;;;;5053886;28;8860;-81
2023/06/30 09:56:58;;;;;;;;;0.80;0.80;;;;;;;;5053090;28;8872;-79
2023/06/30 09:59:25;;;;;;;;;1.00;1.00;;;;;;;;5041318;28;8872;-82
2023/06/30 10:01:53;;;;;;;;;2.80;0.80;;;;;;;;5064402;28;8936;-83
2023/06/30 10:04:20;;;;;;;;;3.20;2.00;;;;;;;;5048908;28;9608;-82
2023/06/30 10:06:48;;;;;;;;;1.80;0.60;;;;;;;;5066201;28;8871;-80
2023/06/30 10:09:17;;;;;;;;;1.60;1.60;;;;;;;;5064037;28;8884;-81
2023/06/30 10:11:45;;;;;;;;;1.00;1.00;;;;;;;;5049678;28;8860;-77
2023/06/30 10:14:15;;;;;;;;;1.60;1.60;;;;;;;;5059852;28;8855;-77
2023/06/30 10:16:43;;;;;;;;;2.20;2.20;;;;;;;;5048607;28;8858;-78
2023/06/30 10:19:13;;;;;;;;;0.20;0.20;;;;;;;;5039204;28;8869;-79
2023/06/30 10:21:42;;;;;;;;;1.80;1.80;;;;;;;;5048720;28;8887;-79
2023/06/30 10:24:11;;;;;;;;;38.60;34.00;;;;;;;;5049127;28;8841;-82
2023/06/30 10:26:43;;;;;;;;;1.00;1.00;;;;;;;;5048592;28;10655;-78
2023/06/30 10:29:13;;;;;;;;;149.00;145.25;;;;;;;;5048528;28;8833;-84
2023/06/30 10:31:41;;;;;;;;;648.00;598.33;;;;;;;;5055003;28;11574;-81
2023/06/30 10:34:10;;;;;;;;;162.67;157.00;;;;;;;;5050127;28;8893;-79
2023/06/30 10:36:38;;;;;;;;;372.25;360.25;;;;;;;;5052886;28;8852;-81
2023/06/30 10:39:06;;;;;;;;;0.40;0.20;;;;;;;;5054262;28;8865;-84
2023/06/30 10:41:47;;;;;;;;;199.00;195.40;;;;;;;;5052405;28;8846;-82
2023/06/30 10:44:15;;;;;;;;;40.80;37.20;;;;;;;;5052578;28;8919;-82
2023/06/30 10:46:46;;;;;;;;;77.75;69.50;;;;;;;;5055800;28;8865;-84
2023/06/30 10:49:20;;;;;;;;;11.20;8.60;;;;;;;;5056767;28;9754;-80
2023/06/30 10:51:49;;;;;;;;;3.00;1.00;;;;;;;;5051359;28;8861;-80
2023/06/30 10:54:24;;;;;;;;;1.00;1.00;;;;;;;;5050575;28;8830;-80
2023/06/30 10:57:04;;;;;;;;;1.00;1.00;;;;;;;;5051709;28;9008;-81
2023/06/30 10:59:38;;;;;;;;;1.60;1.60;;;;;;;;5049069;28;8876;-84
2023/06/30 11:02:24;;;;;;;;;1.60;1.60;;;;;;;;5048806;28;8806;-80
2023/06/30 11:04:53;;;;;;;;;2.00;2.00;;;;;;;;5048236;28;8881;-83
2023/06/30 11:07:24;;;;;;;;;1.60;1.60;;;;;;;;5048996;28;8837;-84
2023/06/30 11:10:01;;;;;;;;;2.00;2.00;;;;;;;;5048708;28;9087;-82
2023/06/30 11:12:45;;;;;;;;;2.00;2.00;;;;;;;;5038439;28;8884;-78
2023/06/30 11:15:26;;;;;;;;;2.00;2.00;;;;;;;;5048267;28;8876;-78
2023/06/30 11:18:01;;;;;;;;;3.40;2.60;;;;;;;;5047767;28;8968;-80
2023/06/30 11:20:29;;;;;;;;;3.20;3.20;;;;;;;;5048689;28;8833;-84
2023/06/30 11:22:58;;;;;;;;;2.20;2.20;;;;;;;;5049877;28;8881;-84
2023/06/30 11:25:26;;;;;;;;;4.60;3.20;;;;;;;;5058241;28;8965;-83
2023/06/30 11:27:55;;;;;;;;;2.20;2.20;;;;;;;;5050280;28;8872;-82
2023/06/30 11:30:23;;;;;;;;;3.00;3.00;;;;;;;;5049911;28;8796;-78
2023/06/30 11:32:55;;;;;;;;;2.00;2.00;;;;;;;;5046731;28;9624;-83
2023/06/30 11:35:23;;;;;;;;;3.00;3.00;;;;;;;;5050027;28;8883;-79
2023/06/30 11:37:51;;;;;;;;;2.00;2.00;;;;;;;;5043442;28;8927;-81
2023/06/30 11:40:19;;;;;;;;;3.60;3.60;;;;;;;;5052303;28;8842;-84
2023/06/30 11:42:47;;;;;;;;;2.40;2.40;;;;;;;;5047906;28;8857;-78
2023/06/30 11:45:19;;;;;;;;;2.60;2.60;;;;;;;;5052318;28;8921;-78
2023/06/30 11:47:51;;;;;;;;;2.20;2.20;;;;;;;;5046737;28;8857;-77
2023/06/30 11:50:19;;;;;;;;;2.20;2.20;;;;;;;;5048671;28;8964;-78
2023/06/30 11:52:47;;;;;;;;;3.20;3.20;;;;;;;;5047101;28;8907;-77
2023/06/30 11:55:16;;;;;;;;;2.60;2.60;;;;;;;;5047560;28;8879;-77
2023/06/30 11:57:46;;;;;;;;;2.40;2.00;;;;;;;;5047461;28;8861;-79
2023/06/30 12:00:17;;;;;;;;;2.40;2.40;;;;;;;;5047289;28;8865;-80
2023/06/30 12:02:46;;;;;;;;;3.00;1.80;;;;;;;;5048449;28;8875;-78
2023/06/30 12:05:16;;;;;;;;;2.40;2.40;;;;;;;;5051471;28;8865;-79
2023/06/30 12:07:44;;;;;;;;;2.60;2.60;;;;;;;;5063356;28;8855;-79
2023/06/30 12:10:12;;;;;;;;;2.60;2.60;;;;;;;;5059516;28;8858;-80
2023/06/30 12:12:40;;;;;;;;;2.00;0.80;;;;;;;;5067354;28;8981;-80
2023/06/30 12:15:11;;;;;;;;;2.40;2.40;;;;;;;;5059985;28;8881;-79
2023/06/30 12:17:43;;;;;;;;;2.40;2.40;;;;;;;;5061590;28;8851;-78
2023/06/30 12:20:11;;;;;;;;;2.20;2.20;;;;;;;;5061287;28;8979;-78
2023/06/30 12:22:41;;;;;;;;;4.40;3.00;;;;;;;;5060593;28;9625;-78
2023/06/30 12:25:11;;;;;;;;;3.40;3.40;;;;;;;;5062186;28;8928;-79
2023/06/30 12:27:43;;;;;;;;;3.20;3.20;;;;;;;;5067011;28;9000;-76
2023/06/30 12:30:18;;;;;;;;;1.80;1.80;;;;;;;;5049536;28;8887;-82
2023/06/30 12:32:47;;;;;;;;;2.20;2.20;;;;;;;;5066385;28;9024;-78
2023/06/30 12:35:14;;;;;;;;;1.60;1.60;;;;;;;;5067466;28;8870;-84
2023/06/30 12:37:44;;;;;;;;;2.00;2.00;;;;;;;;5065636;28;8969;-80
2023/06/30 12:40:13;;;;;;;;;2.80;2.40;;;;;;;;5066463;28;9655;-79
2023/06/30 12:42:47;;;;;;;;;2.60;2.60;;;;;;;;5062803;28;8889;-77
2023/06/30 12:45:15;;;;;;;;;3.00;3.00;;;;;;;;5064807;28;8859;-78
2023/06/30 12:47:42;;;;;;;;;3.00;3.00;;;;;;;;5063711;28;8981;-81
2023/06/30 12:50:13;;;;;;;;;2.40;2.40;;;;;;;;5059445;28;8976;-81
2023/06/30 12:52:41;;;;;;;;;4.40;3.20;;;;;;;;5063986;28;8865;-78
2023/06/30 12:55:09;;;;;;;;;3.40;3.40;;;;;;;;5051508;28;8960;-81
2023/06/30 12:57:37;;;;;;;;;2.40;2.40;;;;;;;;5052126;28;8863;-82
2023/06/30 13:00:07;;;;;;;;;2.00;2.00;;;;;;;;5053074;28;8972;-77
2023/06/30 13:02:37;;;;;;;;;2.20;2.20;;;;;;;;5054020;28;8801;-80
2023/06/30 13:05:06;;;;;;;;;2.20;2.20;;;;;;;;5055217;28;8846;-79
2023/06/30 13:07:35;;;;;;;;;2.40;2.40;;;;;;;;5065289;28;8868;-81
2023/06/30 13:10:03;;;;;;;;;3.60;3.60;;;;;;;;5054912;28;8976;-79
2023/06/30 13:12:30;;;;;;;;;6.20;4.40;;;;;;;;5057278;28;8862;-76
2023/06/30 13:14:58;;;;;;;;;1.00;1.00;;;;;;;;5066088;28;8985;-78
2023/06/30 13:17:25;;;;;;;;;0.80;0.80;;;;;;;;5063944;28;8983;-78
2023/06/30 13:19:53;;;;;;;;;2.00;2.00;;;;;;;;5068962;28;8858;-78
2023/06/30 13:22:21;;;;;;;;;3.00;3.00;;;;;;;;5069757;28;8965;-78
2023/06/30 13:24:50;;;;;;;;;3.40;2.20;;;;;;;;5067221;28;8862;-78
2023/06/30 13:27:17;;;;;;;;;4.60;4.00;;;;;;;;5058065;28;8948;-78
2023/06/30 13:29:46;;;;;;;;;4.00;2.40;;;;;;;;5053247;28;8861;-79
2023/06/30 13:32:13;;;;;;;;;3.20;3.20;;;;;;;;5049546;28;8828;-77
2023/06/30 13:34:43;;;;;;;;;2.60;2.60;;;;;;;;5050044;28;8858;-78
2023/06/30 13:37:11;;;;;;;;;2.00;2.00;;;;;;;;5059462;28;8854;-78
2023/06/30 13:39:38;;;;;;;;;3.00;2.00;;;;;;;;5052416;28;8858;-77
2023/06/30 13:42:08;;;;;;;;;1.80;1.80;;;;;;;;5058788;28;8877;-78
2023/06/30 13:44:36;;;;;;;;;2.00;2.00;;;;;;;;5054918;28;8855;-78
2023/06/30 13:47:04;;;;;;;;;1.00;1.00;;;;;;;;5059766;28;9760;-77
2023/06/30 13:49:31;;;;;;;;;1.80;1.80;;;;;;;;5054762;28;8845;-78
2023/06/30 13:51:58;;;;;;;;;0.00;0.00;;;;;;;;5062839;28;8991;-77
2023/06/30 13:54:25;;;;;;;;;1.40;1.00;;;;;;;;5050363;28;8919;-77
2023/06/30 13:56:53;;;;;;;;;1.00;0.40;;;;;;;;5049821;28;8892;-77
2023/06/30 13:59:22;;;;;;;;;0.40;0.40;;;;;;;;5049945;28;8850;-78
2023/06/30 14:01:49;;;;;;;;;1.00;1.00;;;;;;;;5049287;28;8944;-77
2023/06/30 14:04:17;;;;;;;;;2.00;0.40;;;;;;;;5049687;28;8870;-78
2023/06/30 14:06:44;;;;;;;;;1.00;1.00;;;;;;;;5068284;28;8867;-78
2023/06/30 14:09:14;;;;;;;;;3.00;1.00;;;;;;;;5068385;28;9003;-77
2023/06/30 14:11:41;;;;;;;;;3.00;1.40;;;;;;;;5067181;28;8919;-76
2023/06/30 14:14:08;;;;;;;;;1.00;1.00;;;;;;;;5068672;28;8839;-77
2023/06/30 14:16:37;;;;;;;;;1.20;1.20;;;;;;;;5067002;28;8842;-77
2023/06/30 14:19:06;;;;;;;;;1.80;1.80;;;;;;;;5049200;28;8846;-79
2023/06/30 14:21:33;;;;;;;;;1.20;1.20;;;;;;;;5061736;28;8952;-81
2023/06/30 14:24:00;;;;;;;;;1.00;1.00;;;;;;;;5054918;28;8845;-80
2023/06/30 14:26:31;;;;;;;;;1.60;1.60;;;;;;;;5048597;28;8980;-81
2023/06/30 14:29:00;;;;;;;;;1.00;1.00;;;;;;;;5048869;28;8865;-79
2023/06/30 14:31:27;;;;;;;;;1.00;1.00;;;;;;;;5048493;28;8818;-79
2023/06/30 14:33:56;;;;;;;;;0.00;0.00;;;;;;;;5048899;28;8899;-81
2023/06/30 14:36:23;;;;;;;;;1.00;1.00;;;;;;;;5049678;28;9521;-81
2023/06/30 14:38:50;;;;;;;;;1.00;1.00;;;;;;;;5050082;28;8865;-79
2023/06/30 14:41:17;;;;;;;;;0.60;0.60;;;;;;;;5052035;28;8942;-79
2023/06/30 14:43:45;;;;;;;;;1.40;1.00;;;;;;;;5053237;28;9704;-78
2023/06/30 14:46:12;;;;;;;;;0.20;0.20;;;;;;;;5044851;28;8987;-77
2023/06/30 14:48:42;;;;;;;;;0.60;0.60;;;;;;;;5059614;28;8857;-79
2023/06/30 14:51:11;;;;;;;;;0.00;0.00;;;;;;;;5060895;28;8865;-78
2023/06/30 14:53:39;;;;;;;;;0.00;0.00;;;;;;;;5052304;28;8851;-77
2023/06/30 14:56:06;;;;;;;;;0.00;0.00;;;;;;;;5062975;28;8985;-78
2023/06/30 14:58:33;;;;;;;;;0.40;0.40;;;;;;;;5048517;28;8909;-77
2023/06/30 15:01:00;;;;;;;;;0.20;0.20;;;;;;;;5053439;28;9486;-77